Time;durP1;ratioP1;P1;durP2;ratioP2;P2;SDS_P1;SDS_P2;PMS_P1;PMS_P2;Temp;Humidity;BMP_temperature;BMP_pressure;BME280_temperature;BME280_humidity;BME280_pressure;Samples;Min_cycle;Max_cycle;Signal;HPM_P1;HPM_P2
2020/12/05 00:00:45;;;;;;;14.70;10.20;;;3.20;99.90;;;;;;5032220;28;20160;-65
2020/12/05 00:03:11;;;;;;;14.33;10.40;;;3.10;99.90;;;;;;5032347;28;20238;-64
2020/12/05 00:05:37;;;;;;;16.73;10.90;;;3.20;99.90;;;;;;5032403;28;20262;-65
2020/12/05 00:08:03;;;;;;;15.97;10.60;;;3.20;99.90;;;;;;5032165;28;20222;-65
2020/12/05 00:10:29;;;;;;;13.27;10.10;;;3.30;99.90;;;;;;5031370;28;20168;-65
2020/12/05 00:12:55;;;;;;;16.43;10.87;;;3.30;99.90;;;;;;5030652;28;20206;-65
2020/12/05 00:15:20;;;;;;;17.67;10.60;;;3.40;99.90;;;;;;5032096;28;20255;-65
2020/12/05 00:17:46;;;;;;;14.67;9.23;;;3.40;99.90;;;;;;5031688;28;20206;-66
2020/12/05 00:20:11;;;;;;;15.43;10.43;;;3.30;99.90;;;;;;5032139;28;20167;-65
2020/12/05 00:22:38;;;;;;;13.97;10.07;;;3.30;99.90;;;;;;5031798;28;20657;-65
2020/12/05 00:25:03;;;;;;;15.80;10.93;;;3.30;99.90;;;;;;5032224;28;20172;-65
2020/12/05 00:27:29;;;;;;;16.40;10.30;;;3.30;99.90;;;;;;5032427;28;20199;-65
2020/12/05 00:29:55;;;;;;;14.40;9.67;;;3.30;99.90;;;;;;5031815;28;20539;-65
2020/12/05 00:32:21;;;;;;;15.27;10.67;;;3.30;99.90;;;;;;5031817;28;20210;-65
2020/12/05 00:34:47;;;;;;;16.50;11.73;;;3.30;99.90;;;;;;5031936;28;20198;-64
2020/12/05 00:37:13;;;;;;;14.17;10.73;;;3.30;99.90;;;;;;5031778;28;20238;-65
2020/12/05 00:39:38;;;;;;;15.17;10.73;;;3.20;99.90;;;;;;5031598;28;20167;-65
2020/12/05 00:42:04;;;;;;;16.23;10.97;;;3.20;99.90;;;;;;5031692;28;20585;-65
2020/12/05 00:44:30;;;;;;;13.90;9.73;;;3.20;99.90;;;;;;5031665;28;20193;-65
2020/12/05 00:46:56;;;;;;;18.77;10.87;;;3.20;99.90;;;;;;5031612;28;20195;-65
2020/12/05 00:49:21;;;;;;;15.30;10.47;;;3.20;99.90;;;;;;5031747;28;20178;-64
2020/12/05 00:51:50;;;;;;;13.07;10.03;;;3.20;99.90;;;;;;5030968;28;20732;-65
2020/12/05 00:54:16;;;;;;;17.03;10.67;;;3.20;99.90;;;;;;5031701;28;20160;-65
2020/12/05 00:56:41;;;;;;;20.90;11.77;;;3.20;99.90;;;;;;5031528;28;20282;-65
2020/12/05 00:59:07;;;;;;;16.97;11.73;;;3.20;99.90;;;;;;5031684;28;20233;-65
2020/12/05 01:01:33;;;;;;;18.10;11.53;;;3.20;99.90;;;;;;5031031;28;20543;-68
2020/12/05 01:03:59;;;;;;;21.43;11.63;;;3.20;99.90;;;;;;5031561;28;20700;-64
2020/12/05 01:06:24;;;;;;;15.53;10.77;;;3.30;99.90;;;;;;5031338;28;20592;-64
2020/12/05 01:08:50;;;;;;;16.87;11.07;;;3.20;99.90;;;;;;5031051;28;20593;-66
2020/12/05 01:11:17;;;;;;;18.67;11.10;;;3.30;99.90;;;;;;5031241;28;20697;-64
2020/12/05 01:13:44;;;;;;;19.53;11.90;;;3.20;99.90;;;;;;5029782;28;20650;-66
2020/12/05 01:16:13;;;;;;;17.53;11.37;;;3.30;99.90;;;;;;5031502;28;20178;-65
2020/12/05 01:18:40;;;;;;;16.43;11.23;;;3.30;99.90;;;;;;5030997;28;20218;-63
2020/12/05 01:21:10;;;;;;;16.43;11.73;;;3.40;99.90;;;;;;5031195;28;20586;-63
2020/12/05 01:23:37;;;;;;;13.50;10.63;;;3.60;99.90;;;;;;5031219;28;20566;-63
2020/12/05 01:26:03;;;;;;;15.50;10.93;;;3.50;99.90;;;;;;5031489;28;20171;-65
2020/12/05 01:28:30;;;;;;;17.03;10.33;;;3.60;99.90;;;;;;5034480;28;20260;-64
2020/12/05 01:30:55;;;;;;;15.47;10.77;;;3.50;99.90;;;;;;5035086;28;20240;-65
2020/12/05 01:33:21;;;;;;;17.60;12.03;;;3.50;99.90;;;;;;5035244;28;20402;-65
2020/12/05 01:35:47;;;;;;;14.83;10.43;;;3.40;99.90;;;;;;5035125;28;20618;-64
2020/12/05 01:38:12;;;;;;;17.27;10.23;;;3.40;99.90;;;;;;5035049;28;20815;-65
2020/12/05 01:40:38;;;;;;;15.70;9.80;;;3.40;99.90;;;;;;5034836;28;20570;-67
2020/12/05 01:43:04;;;;;;;15.13;9.30;;;3.30;99.90;;;;;;5033683;28;20203;-65
2020/12/05 01:45:29;;;;;;;18.50;9.87;;;3.20;99.90;;;;;;5035162;28;20637;-63
2020/12/05 01:47:55;;;;;;;16.67;9.97;;;3.20;99.90;;;;;;5034536;28;20218;-64
2020/12/05 01:50:21;;;;;;;16.07;9.83;;;3.20;99.90;;;;;;5033502;28;20175;-64
2020/12/05 01:52:49;;;;;;;19.17;10.57;;;3.10;99.90;;;;;;5035128;28;20665;-65
2020/12/05 01:55:14;;;;;;;18.87;11.83;;;3.00;99.90;;;;;;5034921;28;20181;-66
2020/12/05 01:57:40;;;;;;;19.27;12.93;;;3.00;99.90;;;;;;5034699;28;20561;-64
2020/12/05 02:00:06;;;;;;;19.23;12.27;;;3.00;99.90;;;;;;5034428;28;20175;-65
2020/12/05 02:02:32;;;;;;;21.57;14.20;;;3.10;99.90;;;;;;5033616;28;20673;-64
2020/12/05 02:05:07;;;;;;;20.50;13.77;;;3.20;99.90;;;;;;5034787;28;20178;-64
2020/12/05 02:07:55;;;;;;;23.20;13.53;;;3.20;99.90;;;;;;5033043;28;20262;-65
2020/12/05 02:10:26;;;;;;;22.13;13.20;;;3.20;99.90;;;;;;5034464;28;20268;-66
2020/12/05 02:13:12;;;;;;;17.93;12.67;;;3.20;99.90;;;;;;5034296;28;20249;-65
2020/12/05 02:15:39;;;;;;;22.03;12.90;;;3.30;99.90;;;;;;5034483;28;20203;-65
2020/12/05 02:18:07;;;;;;;20.23;13.10;;;3.30;99.90;;;;;;5034421;28;20191;-65
2020/12/05 02:20:35;;;;;;;24.03;14.37;;;3.30;99.90;;;;;;5034094;28;20228;-63
2020/12/05 02:23:12;;;;;;;24.80;13.00;;;3.30;99.90;;;;;;5033978;28;20262;-65
2020/12/05 02:25:41;;;;;;;23.87;14.33;;;3.30;99.90;;;;;;5034071;28;20175;-66
2020/12/05 02:28:07;;;;;;;25.87;14.17;;;3.30;99.90;;;;;;5034528;28;20200;-64
2020/12/05 02:30:33;;;;;;;22.40;14.30;;;3.30;99.90;;;;;;5033799;28;20736;-65
2020/12/05 02:33:03;;;;;;;24.77;14.43;;;3.30;99.90;;;;;;5034529;28;20207;-64
2020/12/05 02:35:30;;;;;;;26.67;15.00;;;3.30;99.90;;;;;;5033941;28;20301;-66
2020/12/05 02:38:05;;;;;;;25.20;15.03;;;3.40;99.90;;;;;;5033634;28;20206;-65
2020/12/05 02:40:31;;;;;;;24.90;15.27;;;3.40;99.90;;;;;;5033728;28;20172;-64
2020/12/05 02:42:57;;;;;;;25.57;14.90;;;3.40;99.90;;;;;;5034216;28;20262;-65
2020/12/05 02:45:23;;;;;;;28.97;14.90;;;3.40;99.90;;;;;;5034120;28;20268;-64
2020/12/05 02:47:49;;;;;;;25.07;15.03;;;3.40;99.90;;;;;;5033713;28;20215;-64
2020/12/05 02:50:15;;;;;;;29.90;16.40;;;3.40;99.90;;;;;;5033760;28;20258;-65
2020/12/05 02:52:40;;;;;;;28.77;16.13;;;3.50;99.90;;;;;;5033726;28;20231;-65
2020/12/05 02:55:06;;;;;;;30.77;16.10;;;3.50;99.90;;;;;;5033722;28;20186;-65
2020/12/05 02:57:31;;;;;;;28.03;15.07;;;3.50;99.90;;;;;;5033817;28;20195;-65
2020/12/05 02:59:57;;;;;;;26.13;15.50;;;3.60;99.90;;;;;;5032710;28;20183;-65
2020/12/05 03:02:22;;;;;;;26.57;14.80;;;3.60;99.90;;;;;;5033684;28;20180;-65
2020/12/05 03:04:48;;;;;;;25.10;14.33;;;3.60;99.90;;;;;;5032835;28;20221;-65
2020/12/05 03:07:15;;;;;;;23.83;14.57;;;3.60;99.90;;;;;;5033683;28;20206;-64
2020/12/05 03:09:41;;;;;;;25.87;14.97;;;3.60;99.90;;;;;;5033188;28;20224;-64
2020/12/05 03:12:07;;;;;;;29.90;15.03;;;3.60;99.90;;;;;;5033227;28;20199;-65
2020/12/05 03:14:32;;;;;;;30.23;15.63;;;3.60;99.90;;;;;;5033627;28;20170;-65
2020/12/05 03:16:58;;;;;;;23.40;14.33;;;3.60;99.90;;;;;;5033269;28;20234;-65
2020/12/05 03:19:24;;;;;;;30.23;15.37;;;3.60;99.90;;;;;;5033733;28;20171;-65
2020/12/05 03:21:49;;;;;;;27.13;14.70;;;3.60;99.90;;;;;;5031523;28;20194;-65
2020/12/05 03:24:15;;;;;;;27.87;15.73;;;3.60;99.90;;;;;;5033417;28;20175;-65
2020/12/05 03:26:40;;;;;;;28.70;17.53;;;3.60;99.90;;;;;;5033011;28;20236;-66
2020/12/05 03:29:06;;;;;;;25.73;15.37;;;3.50;99.90;;;;;;5033021;28;20190;-62
2020/12/05 03:34:01;;;;;;;28.70;16.13;;;3.50;99.90;;;;;;5032753;28;20663;-64
2020/12/05 03:36:26;;;;;;;31.30;17.10;;;3.50;99.90;;;;;;5033063;28;20177;-65
2020/12/05 03:38:53;;;;;;;32.30;19.40;;;3.50;99.90;;;;;;5032704;28;20212;-64
2020/12/05 03:41:20;;;;;;;36.90;19.03;;;3.60;99.90;;;;;;5032732;28;20514;-65
2020/12/05 03:43:46;;;;;;;37.30;19.23;;;3.60;99.90;;;;;;5032506;28;20275;-63
2020/12/05 03:46:11;;;;;;;35.27;19.17;;;3.60;99.90;;;;;;5032855;28;20597;-65
2020/12/05 03:48:37;;;;;;;37.67;18.43;;;3.60;99.90;;;;;;5032346;28;20750;-65
2020/12/05 03:51:02;;;;;;;32.57;17.83;;;3.70;99.90;;;;;;5031994;28;20242;-65
2020/12/05 03:53:28;;;;;;;34.57;18.30;;;3.70;99.90;;;;;;5032418;28;20185;-65
2020/12/05 03:55:54;;;;;;;38.40;20.00;;;3.70;99.90;;;;;;5032701;28;20179;-65
2020/12/05 03:58:21;;;;;;;35.27;18.40;;;3.70;99.90;;;;;;5032613;28;20206;-65
2020/12/05 04:00:46;;;;;;;32.63;18.27;;;3.70;99.90;;;;;;5032304;28;20597;-64
2020/12/05 04:03:12;;;;;;;34.47;18.97;;;3.70;99.90;;;;;;5032334;28;20202;-64
2020/12/05 04:05:37;;;;;;;34.63;18.77;;;3.70;99.90;;;;;;5032415;28;20176;-65
2020/12/05 04:08:03;;;;;;;33.67;18.73;;;3.80;99.90;;;;;;5032171;28;20195;-63
2020/12/05 04:10:29;;;;;;;38.20;20.67;;;3.80;99.90;;;;;;5032173;28;20172;-63
2020/12/05 04:12:55;;;;;;;41.00;19.40;;;3.80;99.90;;;;;;5032088;28;20578;-65
2020/12/05 04:15:20;;;;;;;34.60;17.73;;;3.80;99.90;;;;;;5032358;28;20536;-65
2020/12/05 04:17:46;;;;;;;33.70;17.87;;;3.70;99.90;;;;;;5031831;28;20257;-65
2020/12/05 04:20:12;;;;;;;35.57;18.57;;;3.70;99.90;;;;;;5030777;28;20662;-65
2020/12/05 04:22:37;;;;;;;39.40;20.33;;;3.70;99.90;;;;;;5031845;28;20551;-65
2020/12/05 04:25:03;;;;;;;39.47;19.17;;;3.70;99.90;;;;;;5032187;28;20203;-64
2020/12/05 04:27:28;;;;;;;31.67;18.40;;;3.70;99.90;;;;;;5031747;28;20203;-64
2020/12/05 04:29:54;;;;;;;36.97;19.20;;;3.70;99.90;;;;;;5031586;28;20175;-65
2020/12/05 04:32:20;;;;;;;37.50;19.53;;;3.70;99.90;;;;;;5031811;28;20669;-63
2020/12/05 04:34:47;;;;;;;30.30;17.87;;;3.60;99.90;;;;;;5031941;28;20199;-64
2020/12/05 04:37:13;;;;;;;32.00;17.90;;;3.60;99.90;;;;;;5031706;28;20191;-65
2020/12/05 04:39:39;;;;;;;37.87;19.67;;;3.60;99.90;;;;;;5031888;28;20174;-65
2020/12/05 04:42:04;;;;;;;30.57;19.00;;;3.50;99.90;;;;;;5031341;28;20210;-61
2020/12/05 04:44:31;;;;;;;40.63;20.63;;;3.50;99.90;;;;;;5031900;28;20174;-64
2020/12/05 04:47:00;;;;;;;37.23;19.53;;;3.50;99.90;;;;;;5031964;28;20657;-69
2020/12/05 04:49:28;;;;;;;35.10;19.53;;;3.50;99.90;;;;;;5031866;28;20215;-62
2020/12/05 04:52:14;;;;;;;33.83;20.13;;;3.50;99.90;;;;;;5029696;28;20580;-64
2020/12/05 04:54:41;;;;;;;34.27;20.13;;;3.40;99.90;;;;;;5031468;28;20163;-64
2020/12/05 04:57:08;;;;;;;35.43;19.57;;;3.40;99.90;;;;;;5031560;28;20187;-62
2020/12/05 04:59:33;;;;;;;32.30;19.47;;;3.40;99.90;;;;;;5031505;28;20206;-65
2020/12/05 05:02:09;;;;;;;33.00;17.80;;;3.40;99.90;;;;;;5030900;28;20262;-66
2020/12/05 05:04:34;;;;;;;28.63;17.93;;;3.40;99.90;;;;;;5030375;28;20558;-64
2020/12/05 05:07:04;;;;;;;29.13;17.67;;;3.30;99.90;;;;;;5031228;28;20203;-65
2020/12/05 05:09:30;;;;;;;30.53;17.07;;;3.30;99.90;;;;;;5031436;28;20175;-65
2020/12/05 05:11:57;;;;;;;29.23;16.77;;;3.20;99.90;;;;;;5030616;28;20202;-65
2020/12/05 05:14:35;;;;;;;36.53;18.17;;;3.20;99.90;;;;;;5031573;28;20164;-62
2020/12/05 05:17:07;;;;;;;35.47;17.37;;;3.10;99.90;;;;;;5031182;28;20285;-63
2020/12/05 05:19:36;;;;;;;29.23;15.33;;;3.00;99.90;;;;;;5031407;28;20649;-63
2020/12/05 05:22:02;;;;;;;31.30;16.93;;;2.90;99.90;;;;;;5030747;28;20183;-65
2020/12/05 05:24:28;;;;;;;27.37;15.97;;;2.80;99.90;;;;;;5031398;28;20172;-64
2020/12/05 05:26:59;;;;;;;29.10;17.57;;;2.70;99.90;;;;;;5030949;28;20203;-65
2020/12/05 05:29:34;;;;;;;29.97;17.03;;;2.70;99.90;;;;;;5031334;28;20258;-65
2020/12/05 05:32:22;;;;;;;31.00;17.63;;;2.60;99.90;;;;;;5030618;28;20561;-63
2020/12/05 05:34:46;;;;;;;33.07;15.97;;;2.60;99.90;;;;;;5030943;28;20661;-64
2020/12/05 05:37:19;;;;;;;31.17;17.03;;;2.50;99.90;;;;;;5031023;28;20199;-63
2020/12/05 05:39:51;;;;;;;27.93;15.43;;;2.50;99.90;;;;;;5031151;28;20711;-65
2020/12/05 05:42:30;;;;;;;26.53;16.73;;;2.40;99.90;;;;;;5030781;28;20179;-65
2020/12/05 05:45:22;;;;;;;33.40;16.93;;;2.40;99.90;;;;;;5031210;28;20542;-65
2020/12/05 05:47:50;;;;;;;30.87;16.80;;;2.40;99.90;;;;;;5011176;28;20243;-66
2020/12/05 05:50:23;;;;;;;33.67;17.83;;;2.30;99.90;;;;;;5027111;28;20718;-64
2020/12/05 05:53:03;;;;;;;33.23;17.97;;;2.30;99.90;;;;;;5031328;28;20673;-65
2020/12/05 05:55:42;;;;;;;40.03;18.77;;;2.30;99.90;;;;;;5030888;28;20176;-65
2020/12/05 05:58:08;;;;;;;35.50;18.13;;;2.30;99.90;;;;;;5031037;28;20548;-65
2020/12/05 06:00:37;;;;;;;28.67;17.73;;;2.30;99.90;;;;;;5030641;28;20249;-64
2020/12/05 06:03:18;;;;;;;31.03;17.93;;;2.20;99.90;;;;;;5031202;28;20226;-64
2020/12/05 06:05:46;;;;;;;30.17;18.83;;;2.20;99.90;;;;;;5030649;28;20176;-65
2020/12/05 06:08:25;;;;;;;35.47;18.77;;;2.10;99.90;;;;;;5030905;28;20206;-64
2020/12/05 06:11:10;;;;;;;33.43;19.90;;;2.20;99.90;;;;;;5030227;28;20242;-66
2020/12/05 06:13:36;;;;;;;32.50;18.23;;;2.20;99.90;;;;;;5032590;28;20179;-64
2020/12/05 06:16:02;;;;;;;32.03;17.07;;;2.20;99.90;;;;;;5034252;28;20207;-65
2020/12/05 06:18:29;;;;;;;34.30;17.70;;;2.20;99.90;;;;;;5034359;28;20191;-65
2020/12/05 06:20:55;;;;;;;39.87;19.43;;;2.20;99.90;;;;;;5032568;28;20187;-64
2020/12/05 06:23:47;;;;;;;40.57;20.37;;;2.20;99.90;;;;;;5034319;28;20662;-63
2020/12/05 06:26:25;;;;;;;36.30;20.50;;;2.40;99.90;;;;;;5034326;28;20163;-64
2020/12/05 06:28:50;;;;;;;38.63;21.70;;;2.50;99.90;;;;;;5033959;28;20278;-63
2020/12/05 06:31:16;;;;;;;38.10;20.87;;;2.50;99.90;;;;;;5033962;28;20286;-64
2020/12/05 06:33:45;;;;;;;34.77;21.37;;;2.60;99.90;;;;;;5034020;28;20203;-65
2020/12/05 06:36:29;;;;;;;43.17;21.33;;;2.60;99.90;;;;;;5034053;28;20168;-64
2020/12/05 06:39:04;;;;;;;40.53;19.63;;;2.70;99.90;;;;;;5033812;28;20254;-64
2020/12/05 06:41:34;;;;;;;35.57;19.70;;;2.70;99.90;;;;;;5033807;28;20171;-63
2020/12/05 06:44:12;;;;;;;38.17;19.63;;;2.70;99.90;;;;;;5033619;28;20434;-62
2020/12/05 06:46:55;;;;;;;34.47;19.33;;;2.70;99.90;;;;;;5033676;28;20622;-63
2020/12/05 06:49:36;;;;;;;35.30;19.03;;;2.70;99.90;;;;;;5014110;28;20180;-64
2020/12/05 06:52:24;;;;;;;31.53;20.97;;;2.80;99.90;;;;;;5013361;28;20262;-65
2020/12/05 06:54:50;;;;;;;39.47;20.87;;;2.80;99.90;;;;;;5013958;28;20200;-62
2020/12/05 06:57:16;;;;;;;37.30;19.93;;;2.80;99.90;;;;;;5016342;28;20188;-62
2020/12/05 06:59:41;;;;;;;36.40;19.43;;;2.80;99.90;;;;;;5033653;28;20194;-64
2020/12/05 07:02:30;;;;;;;36.23;18.57;;;2.90;99.90;;;;;;5035072;28;20660;-64
2020/12/05 07:05:20;;;;;;;35.27;19.43;;;2.90;99.90;;;;;;5033617;28;20183;-64
2020/12/05 07:07:51;;;;;;;34.27;17.67;;;2.90;99.90;;;;;;5032888;28;20206;-64
2020/12/05 07:10:18;;;;;;;31.90;18.20;;;3.00;99.90;;;;;;5032934;28;20284;-65
2020/12/05 07:12:44;;;;;;;28.30;17.07;;;3.00;99.90;;;;;;5033545;28;20587;-65
2020/12/05 07:15:27;;;;;;;29.43;17.47;;;3.00;99.90;;;;;;5033240;28;20171;-65
2020/12/05 07:17:57;;;;;;;32.27;17.60;;;3.10;99.90;;;;;;5033094;28;20276;-65
2020/12/05 07:20:24;;;;;;;34.20;17.60;;;3.20;99.90;;;;;;5032624;28;20164;-66
2020/12/05 07:22:51;;;;;;;26.80;16.33;;;3.20;99.90;;;;;;5033104;28;20179;-66
2020/12/05 07:25:18;;;;;;;26.97;16.50;;;3.30;99.90;;;;;;5031775;28;20178;-65
2020/12/05 07:27:45;;;;;;;28.70;16.60;;;3.30;99.90;;;;;;5033059;28;20237;-64
2020/12/05 07:30:11;;;;;;;32.00;17.03;;;3.40;99.90;;;;;;5032430;28;20259;-65
2020/12/05 07:32:39;;;;;;;28.90;17.33;;;3.40;99.90;;;;;;5032807;28;20234;-64
2020/12/05 07:35:07;;;;;;;29.67;16.53;;;3.50;99.90;;;;;;5032022;28;20176;-65
2020/12/05 07:37:35;;;;;;;31.40;16.23;;;3.50;99.90;;;;;;5032507;28;20195;-64
2020/12/05 07:40:06;;;;;;;30.90;17.20;;;3.50;99.90;;;;;;5032205;28;20186;-63
2020/12/05 07:42:35;;;;;;;27.50;16.67;;;3.40;99.90;;;;;;5032527;28;20185;-65
2020/12/05 07:45:09;;;;;;;30.33;16.30;;;3.30;99.90;;;;;;5032632;28;20178;-64
2020/12/05 07:47:35;;;;;;;29.83;16.67;;;3.20;99.90;;;;;;5031183;28;20214;-65
2020/12/05 07:50:02;;;;;;;30.93;16.33;;;3.20;99.90;;;;;;5032007;28;20188;-65
2020/12/05 07:52:28;;;;;;;29.10;14.70;;;3.10;99.90;;;;;;5032444;28;20286;-65
2020/12/05 07:55:02;;;;;;;28.23;17.23;;;3.10;99.90;;;;;;5030862;28;20270;-65
2020/12/05 07:57:29;;;;;;;26.70;16.07;;;3.10;99.90;;;;;;5032358;28;20203;-64
2020/12/05 08:00:12;;;;;;;27.53;15.67;;;3.10;99.90;;;;;;5031978;28;20519;-65
2020/12/05 08:03:04;;;;;;;27.40;15.33;;;3.10;99.90;;;;;;5032184;28;20246;-65
2020/12/05 08:05:44;;;;;;;25.93;15.67;;;3.10;99.90;;;;;;5032323;28;20546;-65
2020/12/05 08:08:14;;;;;;;29.70;17.47;;;3.10;99.90;;;;;;5031943;28;20203;-66
2020/12/05 08:10:40;;;;;;;29.90;16.73;;;3.00;99.90;;;;;;5030516;28;20270;-65
2020/12/05 08:13:35;;;;;;;30.63;16.13;;;3.00;99.90;;;;;;5031781;28;20298;-64
2020/12/05 08:16:05;;;;;;;29.57;16.07;;;3.00;99.90;;;;;;5023025;28;20264;-65
2020/12/05 08:18:36;;;;;;;27.30;15.97;;;3.00;99.90;;;;;;5031879;28;20573;-64
2020/12/05 08:21:04;;;;;;;30.07;17.07;;;3.00;99.90;;;;;;5035187;28;20207;-64
2020/12/05 08:23:31;;;;;;;25.50;15.57;;;3.10;99.90;;;;;;5038908;28;20226;-63
2020/12/05 08:26:02;;;;;;;29.70;17.43;;;3.10;99.90;;;;;;5031840;28;20656;-63
2020/12/05 08:28:31;;;;;;;31.27;17.80;;;3.10;99.90;;;;;;5031933;28;20199;-63
2020/12/05 08:31:03;;;;;;;31.67;18.60;;;3.20;99.90;;;;;;5030971;28;20696;-63
2020/12/05 08:33:29;;;;;;;33.13;19.03;;;3.30;99.90;;;;;;5031898;28;20199;-65
2020/12/05 08:35:54;;;;;;;40.90;21.07;;;3.30;99.90;;;;;;5031807;28;20203;-62
2020/12/05 08:38:23;;;;;;;41.63;20.87;;;3.40;99.90;;;;;;5031942;28;20258;-64
2020/12/05 08:41:07;;;;;;;35.90;20.30;;;3.50;99.90;;;;;;5031463;28;20175;-65
2020/12/05 08:43:32;;;;;;;38.30;20.53;;;3.50;99.90;;;;;;5031729;28;20175;-64
2020/12/05 08:45:58;;;;;;;36.47;18.13;;;3.60;99.90;;;;;;5031613;28;20175;-63
2020/12/05 08:48:24;;;;;;;34.93;17.37;;;3.60;99.90;;;;;;5030355;28;20211;-64
2020/12/05 08:50:50;;;;;;;33.80;19.03;;;3.60;99.90;;;;;;5029257;28;20475;-64
2020/12/05 08:53:19;;;;;;;36.37;19.30;;;3.60;99.90;;;;;;5031077;28;20199;-65
2020/12/05 08:55:47;;;;;;;35.57;19.27;;;3.70;99.90;;;;;;5031157;28;20299;-64
2020/12/05 08:58:13;;;;;;;35.47;18.70;;;3.70;99.90;;;;;;5011692;28;20606;-64
2020/12/05 09:00:39;;;;;;;37.70;20.00;;;3.70;99.90;;;;;;5021930;28;20537;-63
2020/12/05 09:03:19;;;;;;;32.70;19.33;;;3.80;99.90;;;;;;5031340;28;20183;-65
2020/12/05 09:05:50;;;;;;;33.97;20.30;;;3.90;99.90;;;;;;5029772;28;20641;-65
2020/12/05 09:08:21;;;;;;;34.93;20.43;;;4.10;99.90;;;;;;5030265;28;20195;-65
2020/12/05 09:10:47;;;;;;;31.27;19.17;;;4.50;99.90;;;;;;5030773;28;20182;-62
2020/12/05 09:13:13;;;;;;;30.73;20.03;;;4.60;99.90;;;;;;5031559;28;20199;-64
2020/12/05 09:15:52;;;;;;;31.00;18.73;;;4.70;99.90;;;;;;5031130;28;20535;-65
2020/12/05 09:18:18;;;;;;;32.27;18.90;;;5.00;99.90;;;;;;5031317;28;20660;-64
2020/12/05 09:20:43;;;;;;;24.53;16.27;;;5.30;99.90;;;;;;5030683;28;20171;-64
2020/12/05 09:23:09;;;;;;;22.47;15.37;;;5.80;99.90;;;;;;5031439;28;20567;-65
2020/12/05 09:25:37;;;;;;;20.57;12.90;;;6.20;99.90;;;;;;5030799;28;20195;-65
2020/12/05 09:28:14;;;;;;;16.60;11.07;;;6.50;99.90;;;;;;5030792;28;20552;-64
2020/12/05 09:30:40;;;;;;;15.77;10.97;;;6.90;99.90;;;;;;5029815;28;20178;-65
2020/12/05 09:33:16;;;;;;;19.23;12.73;;;7.00;99.90;;;;;;5030899;28;20210;-65
2020/12/05 09:35:42;;;;;;;14.90;11.23;;;7.10;99.90;;;;;;5030999;28;20220;-65
2020/12/05 09:38:08;;;;;;;18.63;11.47;;;7.30;99.90;;;;;;5030662;28;20286;-65
2020/12/05 09:40:34;;;;;;;14.97;10.17;;;7.50;99.90;;;;;;5029354;28;20270;-63
2020/12/05 09:43:00;;;;;;;11.33;7.80;;;7.70;99.90;;;;;;5031126;28;20182;-65
2020/12/05 09:45:26;;;;;;;14.07;7.90;;;7.90;99.90;;;;;;5031196;28;20172;-65
2020/12/05 09:47:53;;;;;;;13.10;8.07;;;8.10;99.90;;;;;;5031453;28;20269;-65
2020/12/05 09:50:19;;;;;;;12.00;7.13;;;8.30;99.90;;;;;;5034600;28;20191;-65
2020/12/05 09:52:45;;;;;;;8.43;6.10;;;8.30;99.90;;;;;;5034636;28;20286;-65
2020/12/05 09:55:12;;;;;;;7.13;4.97;;;8.30;99.90;;;;;;5034852;28;20306;-65
2020/12/05 09:57:38;;;;;;;9.03;5.97;;;8.20;99.90;;;;;;5034583;28;20198;-65
2020/12/05 10:00:07;;;;;;;9.73;5.43;;;8.20;99.90;;;;;;5034499;28;20579;-64
2020/12/05 10:02:33;;;;;;;6.47;4.80;;;8.40;99.90;;;;;;5033409;28;20183;-64
2020/12/05 10:04:58;;;;;;;4.87;4.37;;;8.40;99.90;;;;;;5034644;28;20179;-64
2020/12/05 10:07:24;;;;;;;3.73;3.30;;;8.50;99.90;;;;;;5034569;28;20298;-65
2020/12/05 10:09:49;;;;;;;3.00;2.70;;;8.60;99.90;;;;;;5034070;28;20168;-68
2020/12/05 10:12:15;;;;;;;4.00;2.30;;;8.80;99.90;;;;;;5033958;28;20586;-64
2020/12/05 10:14:41;;;;;;;1.90;1.70;;;9.00;99.90;;;;;;5034288;28;20225;-65
2020/12/05 10:17:06;;;;;;;2.37;1.97;;;9.10;99.90;;;;;;5033934;28;20203;-63
2020/12/05 10:19:32;;;;;;;1.73;1.60;;;9.30;99.90;;;;;;5033764;28;20176;-64
2020/12/05 10:21:58;;;;;;;1.83;1.67;;;9.50;99.90;;;;;;5038998;28;20253;-65
2020/12/05 10:24:23;;;;;;;1.67;1.57;;;9.70;99.90;;;;;;5054315;28;20640;-65
2020/12/05 10:26:50;;;;;;;1.60;1.50;;;9.90;99.90;;;;;;5053890;28;20198;-65
2020/12/05 10:29:16;;;;;;;3.87;1.70;;;10.20;99.90;;;;;;5034681;28;20175;-65
2020/12/05 10:31:46;;;;;;;1.73;1.57;;;10.40;99.90;;;;;;5033708;28;20278;-66
2020/12/05 10:34:13;;;;;;;1.67;1.57;;;10.30;99.90;;;;;;5033933;28;20270;-65
2020/12/05 10:36:39;;;;;;;2.17;1.67;;;10.30;99.90;;;;;;5034205;28;20191;-65
2020/12/05 10:39:05;;;;;;;1.77;1.67;;;10.20;99.90;;;;;;5033859;28;20715;-65
2020/12/05 10:41:31;;;;;;;5.77;1.90;;;9.70;99.90;;;;;;5033909;28;20171;-64
2020/12/05 10:43:57;;;;;;;1.80;1.70;;;9.40;99.90;;;;;;5033537;28;20194;-66
2020/12/05 10:46:23;;;;;;;3.57;1.90;;;9.40;99.90;;;;;;5033938;28;20176;-64
2020/12/05 10:48:48;;;;;;;1.50;1.40;;;9.60;99.90;;;;;;5035338;28;20644;-66
2020/12/05 10:51:14;;;;;;;1.67;1.53;;;9.50;99.90;;;;;;5035222;28;20645;-67
2020/12/05 10:53:40;;;;;;;1.53;1.43;;;9.70;99.90;;;;;;5034845;28;20187;-67
2020/12/05 10:56:05;;;;;;;1.27;1.27;;;9.70;99.90;;;;;;5034944;28;20219;-66
2020/12/05 10:58:31;;;;;;;2.40;1.53;;;9.70;99.90;;;;;;5034935;28;20298;-66
2020/12/05 11:00:56;;;;;;;1.50;1.40;;;9.70;99.90;;;;;;5035459;28;20176;-66
2020/12/05 11:03:22;;;;;;;1.70;1.60;;;9.80;99.90;;;;;;5035526;28;20552;-67
2020/12/05 11:05:48;;;;;;;2.03;1.80;;;9.80;99.90;;;;;;5035582;28;20675;-66
2020/12/05 11:08:13;;;;;;;2.17;1.40;;;10.00;99.90;;;;;;5034022;28;20210;-66
2020/12/05 11:10:39;;;;;;;1.50;1.40;;;10.20;99.90;;;;;;5034213;28;20171;-67
2020/12/05 11:13:04;;;;;;;1.57;1.30;;;10.40;99.90;;;;;;5034923;28;20207;-66
2020/12/05 11:15:30;;;;;;;2.50;1.57;;;10.60;99.90;;;;;;5034648;28;20172;-67
2020/12/05 11:17:56;;;;;;;2.00;1.73;;;10.60;99.90;;;;;;5034549;28;20195;-66
2020/12/05 11:20:22;;;;;;;1.50;1.40;;;10.50;99.90;;;;;;5034339;28;20167;-66
2020/12/05 11:22:48;;;;;;;1.70;1.60;;;10.30;99.90;;;;;;5034446;28;20702;-67
2020/12/05 11:25:14;;;;;;;1.50;1.40;;;10.20;99.90;;;;;;5033844;28;20179;-67
2020/12/05 11:27:40;;;;;;;2.10;1.40;;;10.30;99.90;;;;;;5033132;28;20206;-67
2020/12/05 11:30:06;;;;;;;1.37;1.27;;;10.60;99.90;;;;;;5033715;28;20182;-66
2020/12/05 11:32:31;;;;;;;1.50;1.30;;;10.90;99.90;;;;;;5033847;28;20206;-65
2020/12/05 11:34:57;;;;;;;3.90;1.47;;;11.00;99.90;;;;;;5033110;28;20171;-67
2020/12/05 11:37:23;;;;;;;1.30;1.20;;;11.00;99.90;;;;;;5034436;28;20289;-67
2020/12/05 11:39:49;;;;;;;1.23;1.13;;;10.80;99.90;;;;;;5034715;28;20246;-67
2020/12/05 11:42:14;;;;;;;2.20;1.40;;;10.80;99.90;;;;;;5034125;28;20210;-66
2020/12/05 11:44:40;;;;;;;1.43;1.20;;;10.90;99.90;;;;;;5032692;28;20233;-66
2020/12/05 11:47:05;;;;;;;1.43;1.27;;;11.00;99.90;;;;;;5033759;28;20246;-67
2020/12/05 11:49:32;;;;;;;1.80;1.40;;;11.00;99.90;;;;;;5033944;28;20242;-67
2020/12/05 11:51:58;;;;;;;1.50;1.33;;;11.10;99.90;;;;;;5032905;28;20219;-67
2020/12/05 11:54:24;;;;;;;2.17;1.40;;;11.30;99.90;;;;;;5033536;28;20178;-67
2020/12/05 11:56:50;;;;;;;1.90;1.50;;;11.40;99.90;;;;;;5031541;28;20258;-67
2020/12/05 11:59:15;;;;;;;2.50;1.70;;;11.50;99.90;;;;;;5033360;28;20637;-67
2020/12/05 12:01:41;;;;;;;2.50;1.20;;;11.20;99.90;;;;;;5033219;28;20178;-67
2020/12/05 12:04:07;;;;;;;3.77;1.27;;;11.20;99.90;;;;;;5032980;28;20687;-66
2020/12/05 12:06:33;;;;;;;1.60;1.37;;;11.10;99.90;;;;;;5032512;28;20175;-66
2020/12/05 12:08:59;;;;;;;3.60;1.23;;;11.00;99.90;;;;;;5032853;28;20180;-66
2020/12/05 12:11:24;;;;;;;2.37;1.33;;;11.00;99.90;;;;;;5035165;28;20210;-67
2020/12/05 12:13:50;;;;;;;6.87;1.40;;;11.00;99.90;;;;;;5033036;28;20218;-67
2020/12/05 12:16:16;;;;;;;1.60;1.17;;;11.00;99.90;;;;;;5034821;28;20215;-66
2020/12/05 12:18:42;;;;;;;2.10;1.40;;;10.80;99.90;;;;;;5033985;28;20199;-67
2020/12/05 12:21:08;;;;;;;1.80;1.40;;;10.80;99.90;;;;;;5033848;28;20171;-67
2020/12/05 12:23:34;;;;;;;1.77;1.33;;;10.70;99.90;;;;;;5034543;28;20638;-67
2020/12/05 12:26:01;;;;;;;1.57;1.37;;;10.70;99.90;;;;;;5033708;28;20175;-66
2020/12/05 12:28:27;;;;;;;1.93;1.60;;;10.80;99.90;;;;;;5033159;28;20314;-66
2020/12/05 12:30:52;;;;;;;3.77;1.90;;;10.70;99.90;;;;;;5033339;28;20203;-66
2020/12/05 12:33:18;;;;;;;2.27;1.43;;;10.40;99.90;;;;;;5032548;28;20676;-66
2020/12/05 12:35:45;;;;;;;3.67;1.53;;;10.20;99.90;;;;;;5033004;28;20198;-66
2020/12/05 12:38:11;;;;;;;2.70;1.63;;;10.10;99.90;;;;;;5033239;28;20558;-66
2020/12/05 12:40:36;;;;;;;2.27;1.60;;;9.90;99.90;;;;;;5033315;28;20629;-66
2020/12/05 12:43:02;;;;;;;1.57;1.47;;;9.70;99.90;;;;;;5033387;28;20250;-66
2020/12/05 12:45:30;;;;;;;2.60;1.57;;;9.50;99.90;;;;;;5033511;28;20231;-65
2020/12/05 12:50:31;;;;;;;1.60;1.50;;;9.60;99.90;;;;;;5033244;28;20207;-65